Metar Cercanos

 

LEPA - Palma De Mallorc, Spain
Distance from station: ONO 38km
Actualización: 26/09/2017 21:30
Few Clouds
Few Clouds
 Viento del ENE
Viento: ENE 11 km/h
Temperatura: 20°C
Rocío: 16°C
Humedad: 78%
Barómetro: 1020 hPa
Clouds: Few Clouds
Visibility: 10 km
Cloud details: Few Clouds 671 m
2017/09/26 19:30 LEPA 261930Z 06006KT 9999 FEW022 20/16 Q1020 NOSIG
LEMH - Mahon/Menorca Is, Spain
Distance from station: ENE 105km
Actualización: 26/09/2017 21:30
Few Clouds
Few Clouds
 Viento del varies
Viento: varies 2 km/h
Temperatura: 18°C
Rocío: 15°C
Humedad: 83%
Barómetro: 1021 hPa
Clouds: Few Clouds
Visibility: 10 km
Cloud details: Few Clouds 610 m
2017/09/26 19:30 LEMH 261930Z VRB01KT 9999 FEW020 18/15 Q1021
 
LEIB - Ibiza/Es Codola, Spain
Distance from station: OSO 165km
Actualización: 26/09/2017 21:30
Few Clouds
Few Clouds
 Viento del E
Viento: E 11 km/h
Temperatura: 22°C
Rocío: 18°C
Humedad: 78%
Barómetro: 1020 hPa
Clouds: Few Clouds
Visibility: 10 km
Cloud details: Few Clouds 671 m
2017/09/26 19:30 LEIB 261930Z 08006KT 060V120 9999 FEW022 22/18 Q1020 NOSIG
LEBL - Barcelona Airpor, Spain
Distance from station: NNO 225km
Actualización: 26/09/2017 21:30
Muy nuboso
Muy nuboso
 Viento del varies
Viento: varies 4 km/h
Temperatura: 22°C
Rocío: 15°C
Humedad: 65%
Barómetro: 1021 hPa
Clouds: Muy nuboso
Visibility: 10 km
Cloud details: Few Clouds 762 m
Muy nuboso 1158 m
2017/09/26 19:30 LEBL 261930Z VRB02KT 9999 FEW025 BKN038 22/15 Q1021 NOSIG
 
LEVC - Valencia (civ/Mi, Spain
Distance from station: NO 188km
Actualización: 26/09/2017 21:30
Parcialmente nuboso
Parcialmente nuboso
 Viento del SE
Viento: SE 7 km/h
Temperatura: 23°C
Rocío: 18°C
Humedad: 74%
Barómetro: 1021 hPa
Clouds: Parcialmente nuboso
Visibility: 10 km
Cloud details: Parcialmente nuboso 610 m
Parcialmente nuboso 762 m
2017/09/26 19:30 LEVC 261930Z 13004KT 080V150 9999 SCT020 SCT025 23/18 Q1021 NOSIG
LEGE - Gerona/Costa Bra, Spain
Distance from station: N 276km
Actualización: 26/09/2017 21:30
Muy nuboso
Muy nuboso
 Viento del calm
Viento: Calma
Temperatura: 17°C
Rocío: 15°C
Humedad: 88%
Barómetro: 1021 hPa
Clouds: Muy nuboso
Visibility: 10 km
Cloud details: Few Clouds 914 m
Parcialmente nuboso 1524 m
Muy nuboso 2134 m
2017/09/26 19:30 LEGE 261930Z 00000KT 9999 FEW030 SCT050 BKN070 17/15 Q1021
 
LEAL - Alicante/El Alte, Spain
Distance from station: OSO 344km
Actualización: 26/09/2017 21:30
Few Clouds
Few Clouds
 Viento del ENE
Viento: ENE 26 km/h
Temperatura: 23°C
Rocío: 20°C
Humedad: 83%
Barómetro: 1020 hPa
Clouds: Few Clouds
Visibility: 10 km
Cloud details: Few Clouds 457 m
2017/09/26 19:30 LEAL 261930Z 07014KT 9999 FEW015 23/20 Q1020 NOSIG
LEAM - Almeria Airport, Spain
Distance from station: SSO 56km
Actualización: 26/09/2017 21:30
Despejado
Despejado
 Viento del E
Viento: E 4 km/h
Temperatura: 24°C
Rocío: 19°C
Humedad: 74%
Barómetro: 1018 hPa
Resumen: Despejado
Visibility: greater than 10 km
2017/09/26 19:30 LEAM 261930Z 10002KT CAVOK 24/19 Q1018
 
LEZG - Zaragoza (mil/Ci, Spain
Distance from station: NO 431km
Actualización: 26/09/2017 21:30
Despejado
Despejado
 Viento del SO
Viento: SO 11 km/h
Temperatura: 19°C
Rocío: 10°C
Humedad: 56%
Barómetro: 1020 hPa
Resumen: Despejado
Visibility: greater than 10 km
2017/09/26 19:30 LEZG 261930Z 22006KT CAVOK 19/10 Q1020
LEMD - Madrid/Barajas, Spain
Distance from station: ONO 234km
Actualización: 26/09/2017 21:30
Despejado
Despejado
 Viento del varies
Viento: varies 4 km/h
Temperatura: 21°C
Rocío: 4°C
Humedad: 33%
Barómetro: 1020 hPa
Resumen: Despejado
Visibility: greater than 10 km
2017/09/26 19:30 LEMD 261930Z VRB02KT CAVOK 21/04 Q1020 NOSIG
 
LEGR - Granada Airport, Spain
Distance from station: OSO 62km
Actualización: 26/09/2017 21:30
Despejado
Despejado
 Viento del SSO
Viento: SSO 11 km/h
Temperatura: 21°C
Rocío: 4°C
Humedad: 33%
Barómetro: 1020 hPa
Resumen: Despejado
Visibility: greater than 10 km
2017/09/26 19:30 LEGR 261930Z 21006KT CAVOK 21/04 Q1020
LEMG - Malaga (civ/Mil), Spain
Distance from station: OSO 227km
Actualización: 26/09/2017 21:30
Despejado
Despejado
 Viento del varies
Viento: varies 4 km/h
Temperatura: 23°C
Rocío: 20°C
Humedad: 83%
Barómetro: 1019 hPa
Resumen: Despejado
Visibility: greater than 10 km
2017/09/26 19:30 LEMG 261930Z VRB02KT CAVOK 23/20 Q1019 NOSIG
 
LEZL - Sevilla (civ/Mil, Spain
Distance from station: S 318km
Actualización: 26/09/2017 21:30
Despejado
Despejado
 Viento del SSO
Viento: SSO 19 km/h
Temperatura: 22°C
Rocío: 10°C
Humedad: 47%
Barómetro: 1017 hPa
Resumen: Despejado
Visibility: greater than 10 km
2017/09/26 19:30 LEZL 261930Z 21010KT CAVOK 22/10 Q1017 NOSIG
LEVT - Vitoria, Spain
Distance from station: NO 226km
Actualización: 26/09/2017 21:30
Despejado
Despejado
 Viento del calm
Viento: Calma
Temperatura: 15°C
Rocío: 12°C
Humedad: 82%
Barómetro: 1022 hPa
Resumen: Despejado
Visibility: greater than 10 km
2017/09/26 19:30 LEVT 261930Z 00000KT CAVOK 15/12 Q1022
 
LEBB - Bilbao/Sondica, Spain
Distance from station: NNO 235km
Actualización: 26/09/2017 21:30
Despejado
Despejado
 Viento del varies
Viento: varies 2 km/h
Temperatura: 17°C
Rocío: 15°C
Humedad: 88%
Barómetro: 1021 hPa
Resumen: Despejado
Visibility: greater than 10 km
2017/09/26 19:30 LEBB 261930Z VRB01KT CAVOK 17/15 Q1021 NOSIG
LESO - San Sebastian/Fu, Spain
Distance from station: N 231km
Actualización: 26/09/2017 21:30
Despejado
Despejado
 Viento del varies
Viento: varies 2 km/h
Temperatura: 17°C
Rocío: 15°C
Humedad: 88%
Barómetro: 1021 hPa
Resumen: Despejado
Visibility: greater than 10 km
2017/09/26 19:30 LESO 261930Z VRB01KT CAVOK 17/15 Q1021
 
LEVD - Valladolid(Mil/C, Spain
Distance from station: ONO 239km
Actualización: 26/09/2017 21:30
Despejado
Despejado
 Viento del N
Viento: N 11 km/h
Temperatura: 16°C
Rocío: 2°C
Humedad: 39%
Barómetro: 1021 hPa
Resumen: Despejado
Visibility: greater than 10 km
2017/09/26 19:30 LEVD 261930Z 01006KT CAVOK 16/02 Q1021
LESA - Salamanca (civ/M, Spain
Distance from station: ONO 349km
Actualización: 26/09/2017 20:00
NOT Current
Despejado
Despejado
 Viento del calm
Viento: Calma
Temperatura: 21°C
Rocío: 6°C
Humedad: 38%
Barómetro: 1020 hPa
Resumen: Despejado
Visibility: greater than 10 km
2017/09/26 18:00 LESA 261800Z 00000KT CAVOK 21/06 Q1020
 
LEXJ - Santander/Paraya, Spain
Distance from station: NNO 247km
Actualización: 26/09/2017 21:30
Despejado
Despejado
 Viento del E
Viento: E 6 km/h
Temperatura: 18°C
Rocío: 15°C
Humedad: 83%
Barómetro: 1020 hPa
Resumen: Despejado
Visibility: greater than 10 km
2017/09/26 19:30 LEXJ 261930Z 09003KT 060V120 CAVOK 18/15 Q1020
LEAS - Asturias/Aviles, Spain
Distance from station: NO 214km
Actualización: 26/09/2017 21:30
Despejado
Despejado
 Viento del calm
Viento: Calma
Temperatura: 16°C
Rocío: 15°C
Humedad: 94%
Barómetro: 1020 hPa
Resumen: Despejado
Visibility: greater than 10 km
2017/09/26 19:30 LEAS 261930Z 00000KT CAVOK 16/15 Q1020 NOSIG
 
LECO - La Coruna/Alvedr, Spain
Distance from station: ONO 222km
Actualización: 26/09/2017 21:30
Despejado
Despejado
 Viento del calm
Viento: Calma
Temperatura: 17°C
Rocío: 13°C
Humedad: 77%
Barómetro: 1020 hPa
Resumen: Despejado
Visibility: greater than 10 km
2017/09/26 19:30 LECO 261930Z 00000KT CAVOK 17/13 Q1020 NOSIG
LEVX - Vigo/Peinador, Spain
Distance from station: O 214km
Actualización: 26/09/2017 21:30
Despejado
Despejado
 Viento del varies
Viento: varies 2 km/h
Temperatura: 15°C
Rocío: 12°C
Humedad: 82%
Barómetro: 1021 hPa
Resumen: Despejado
Visibility: greater than 10 km
2017/09/26 19:30 LEVX 261930Z VRB01KT CAVOK 15/12 Q1021 NOSIG